Hammonia Bavaria — A8QT7 — position and weather

sailwx.info

Track history (hours):
 
Tides and Currents Weather Stations Pressure Air Temp Water Temp Dewpoint Dewpoint Depression Visibility Wind Speed Wind Dir Waves Ship Positions

Hammonia Bavaria

Last reported at 2015-Apr-07 12:33 UTC. Time now 2015-Apr-18 20:52 UTC.
Position N 36°10' W 005°23'.
Warning: this ship's position is 11 days out of date.

Length 209 m; draft 8.3 m.

Type: Cargo ship. MMSI: 636091641.

Date/timePositionNaut miles runAvg speedWind from/ knotsBaromVisibWave heightAir tempDewpointWater temp
2015-Apr-07 12:33N 36°10' W 005°23'0 0.0
2015-Apr-07 11:33N 36°10' W 005°23'0 0.0
2015-Apr-07 10:30N 36°10' W 005°23'0 0.0
2015-Apr-07 09:33N 36°10' W 005°23'0 0.0
2015-Apr-07 08:30N 36°10' W 005°23'0 0.0
2015-Apr-07 07:33N 36°10' W 005°23'0 0.0
2015-Apr-07 06:33N 36°10' W 005°23'0 0.0
2015-Apr-07 05:30N 36°10' W 005°23'0 0.0
2015-Apr-07 03:30N 36°10' W 005°23'0 0.0
2015-Apr-07 02:06N 36°10' W 005°23'0 0.1
2015-Apr-07 01:24N 36°10' W 005°23'0 0.0
2015-Apr-07 00:18N 36°10' W 005°23'0 0.0
2015-Apr-06 23:33N 36°10' W 005°23'0 0.0
2015-Apr-06 22:15N 36°10' W 005°23'0 0.1
2015-Apr-06 21:27N 36°10' W 005°23'0 0.0
2015-Apr-06 20:30N 36°10' W 005°23'0 0.0
2015-Apr-06 19:33N 36°10' W 005°23'0 0.0
2015-Apr-06 18:21N 36°10' W 005°23'0 0.0
2015-Apr-06 17:33N 36°10' W 005°23'0 0.0
2015-Apr-06 15:24N 36°10' W 005°23'0 0.0
2015-Apr-06 14:33N 36°10' W 005°23'0 0.0
2015-Apr-06 13:33N 36°10' W 005°23'0 0.0
2015-Apr-06 12:24N 36°10' W 005°23'0 0.0
2015-Apr-06 10:30N 36°10' W 005°23'0 0.0
2015-Apr-06 09:06N 36°10' W 005°23'0 0.0
2015-Apr-06 07:06N 36°10' W 005°23'0 0.0
2015-Apr-06 04:24N 36°10' W 005°23'0 0.0
2015-Apr-06 02:18N 36°10' W 005°23'0 0.1
2015-Apr-06 00:30N 36°10' W 005°23'0 0.0
2015-Apr-05 21:30N 36°10' W 005°23'0 0.1
2015-Apr-05 19:15N 36°10' W 005°23'0 0.0
2015-Apr-05 15:12N 36°10' W 005°23'0 0.1
2015-Apr-05 13:27N 36°10' W 005°23'0 0.0
2015-Apr-05 11:27N 36°10' W 005°23'0 0.1
2015-Apr-05 10:12N 36°10' W 005°23'0 0.0
2015-Apr-05 09:24N 36°10' W 005°23'0 0.0
2015-Apr-05 06:27N 36°10' W 005°23'0 0.0
2015-Apr-05 03:30N 36°10' W 005°23'0 0.0
2015-Apr-04 22:27N 36°10' W 005°23'0 0.1
2015-Apr-04 20:12N 36°10' W 005°23'0 0.0
2015-Apr-04 19:11N 36°10' W 005°23'0 0.0
2015-Apr-04 14:11N 36°10' W 005°23'0 0.1
2015-Apr-04 13:32N 36°10' W 005°23'0 0.2
2015-Apr-04 12:32N 36°10' W 005°23'0 0.0
2015-Apr-04 11:23N 36°10' W 005°23'0 0.0
2015-Apr-04 08:08N 36°10' W 005°23'0 0.0
2015-Apr-03 18:26N 36°10' W 005°23'0 0.0
2015-Apr-03 17:20N 36°10' W 005°23'0 0.0
2015-Apr-03 10:26N 36°10' W 005°23'0 0.0
2015-Apr-03 09:08N 36°10' W 005°23'0 0.0
2015-Apr-03 08:32N 36°10' W 005°23'0 0.0
2015-Apr-03 07:04N 36°10' W 005°23'1 1.2
2015-Apr-03 06:33N 36°09' W 005°24'8 7.9
2015-Apr-03 05:34N 36°01' W 005°22'10 0.6
2015-Apr-02 13:30N 35°53' W 005°30'83 6.7
2015-Apr-02 01:07N 35°10' W 006°56'5 8.8
2015-Apr-02 00:33N 35°06' W 007°01'37 8.6
2015-Apr-01 20:12N 34°41' W 007°34'6 8.7
2015-Apr-01 19:33N 34°37' W 007°39'9 8.9
2015-Apr-01 18:33N 34°31' W 007°47'9 8.9
2015-Apr-01 17:33N 34°25' W 007°55'9 8.8
2015-Apr-01 16:33N 34°19' W 008°03'67 9.4
2015-Apr-01 09:24N 33°34' W 009°03'6510.3
2015-Apr-01 03:05N 32°41' W 009°48'610.5
2015-Apr-01 02:31N 32°36' W 009°52'1110.4
2015-Apr-01 01:28N 32°27' W 009°60'1310.3
2015-Apr-01 00:10N 32°16' W 010°09'610.2
2015-Mar-31 23:32N 32°10' W 010°13'88 9.5
2015-Mar-31 14:17N 30°57' W 011°11'7 9.9
2015-Mar-31 13:33N 30°52' W 011°16'1410.2
2015-Mar-31 12:11N 30°40' W 011°25'106 9.9
2015-Mar-31 01:31N 29°12' W 012°34'4310.1
2015-Mar-30 21:19N 28°37' W 013°01'11510.2
2015-Mar-30 10:05N 27°07' W 014°22'4410.9
2015-Mar-30 06:04N 26°34' W 014°54'5 9.7
2015-Mar-30 05:33N 26°30' W 014°58'225 9.8
2015-Mar-29 06:29N 23°19' W 017°09'  
Track history (hours):
 
Tides and Currents Weather Stations Pressure Air Temp Water Temp Dewpoint Dewpoint Depression Visibility Wind Speed Wind Dir Waves Ship Positions

Hammonia Bavaria

Last reported at 2015-Apr-07 12:33 UTC. Time now 2015-Apr-18 20:52 UTC.
Position N 36°10' W 005°23'.
Warning: this ship's position is 11 days out of date.

Length 209 m; draft 8.3 m.

Type: Cargo ship. MMSI: 636091641.

Date/timePositionNaut miles runAvg speedWind from/ knotsBaromVisibWave heightAir tempDewpointWater temp
2015-Apr-07 12:33N 36°10' W 005°23'0 0.0
2015-Apr-07 11:33N 36°10' W 005°23'0 0.0
2015-Apr-07 10:30N 36°10' W 005°23'0 0.0
2015-Apr-07 09:33N 36°10' W 005°23'0 0.0
2015-Apr-07 08:30N 36°10' W 005°23'0 0.0
2015-Apr-07 07:33N 36°10' W 005°23'0 0.0
2015-Apr-07 06:33N 36°10' W 005°23'0 0.0
2015-Apr-07 05:30N 36°10' W 005°23'0 0.0
2015-Apr-07 03:30N 36°10' W 005°23'0 0.0
2015-Apr-07 02:06N 36°10' W 005°23'0 0.1
2015-Apr-07 01:24N 36°10' W 005°23'0 0.0
2015-Apr-07 00:18N 36°10' W 005°23'0 0.0
2015-Apr-06 23:33N 36°10' W 005°23'0 0.0
2015-Apr-06 22:15N 36°10' W 005°23'0 0.1
2015-Apr-06 21:27N 36°10' W 005°23'0 0.0
2015-Apr-06 20:30N 36°10' W 005°23'0 0.0
2015-Apr-06 19:33N 36°10' W 005°23'0 0.0
2015-Apr-06 18:21N 36°10' W 005°23'0 0.0
2015-Apr-06 17:33N 36°10' W 005°23'0 0.0
2015-Apr-06 15:24N 36°10' W 005°23'0 0.0
2015-Apr-06 14:33N 36°10' W 005°23'0 0.0
2015-Apr-06 13:33N 36°10' W 005°23'0 0.0
2015-Apr-06 12:24N 36°10' W 005°23'0 0.0
2015-Apr-06 10:30N 36°10' W 005°23'0 0.0
2015-Apr-06 09:06N 36°10' W 005°23'0 0.0
2015-Apr-06 07:06N 36°10' W 005°23'0 0.0
2015-Apr-06 04:24N 36°10' W 005°23'0 0.0
2015-Apr-06 02:18N 36°10' W 005°23'0 0.1
2015-Apr-06 00:30N 36°10' W 005°23'0 0.0
2015-Apr-05 21:30N 36°10' W 005°23'0 0.1
2015-Apr-05 19:15N 36°10' W 005°23'0 0.0
2015-Apr-05 15:12N 36°10' W 005°23'0 0.1
2015-Apr-05 13:27N 36°10' W 005°23'0 0.0
2015-Apr-05 11:27N 36°10' W 005°23'0 0.1
2015-Apr-05 10:12N 36°10' W 005°23'0 0.0
2015-Apr-05 09:24N 36°10' W 005°23'0 0.0
2015-Apr-05 06:27N 36°10' W 005°23'0 0.0
2015-Apr-05 03:30N 36°10' W 005°23'0 0.0
2015-Apr-04 22:27N 36°10' W 005°23'0 0.1
2015-Apr-04 20:12N 36°10' W 005°23'0 0.0
2015-Apr-04 19:11N 36°10' W 005°23'0 0.0
2015-Apr-04 14:11N 36°10' W 005°23'0 0.1
2015-Apr-04 13:32N 36°10' W 005°23'0 0.2
2015-Apr-04 12:32N 36°10' W 005°23'0 0.0
2015-Apr-04 11:23N 36°10' W 005°23'0 0.0
2015-Apr-04 08:08N 36°10' W 005°23'0 0.0
2015-Apr-03 18:26N 36°10' W 005°23'0 0.0
2015-Apr-03 17:20N 36°10' W 005°23'0 0.0
2015-Apr-03 10:26N 36°10' W 005°23'0 0.0
2015-Apr-03 09:08N 36°10' W 005°23'0 0.0
2015-Apr-03 08:32N 36°10' W 005°23'0 0.0
2015-Apr-03 07:04N 36°10' W 005°23'1 1.2
2015-Apr-03 06:33N 36°09' W 005°24'8 7.9
2015-Apr-03 05:34N 36°01' W 005°22'10 0.6
2015-Apr-02 13:30N 35°53' W 005°30'83 6.7
2015-Apr-02 01:07N 35°10' W 006°56'5 8.8
2015-Apr-02 00:33N 35°06' W 007°01'37 8.6
2015-Apr-01 20:12N 34°41' W 007°34'6 8.7
2015-Apr-01 19:33N 34°37' W 007°39'9 8.9
2015-Apr-01 18:33N 34°31' W 007°47'9 8.9
2015-Apr-01 17:33N 34°25' W 007°55'9 8.8
2015-Apr-01 16:33N 34°19' W 008°03'67 9.4
2015-Apr-01 09:24N 33°34' W 009°03'6510.3
2015-Apr-01 03:05N 32°41' W 009°48'610.5
2015-Apr-01 02:31N 32°36' W 009°52'1110.4
2015-Apr-01 01:28N 32°27' W 009°60'1310.3
2015-Apr-01 00:10N 32°16' W 010°09'610.2
2015-Mar-31 23:32N 32°10' W 010°13'88 9.5
2015-Mar-31 14:17N 30°57' W 011°11'7 9.9
2015-Mar-31 13:33N 30°52' W 011°16'1410.2
2015-Mar-31 12:11N 30°40' W 011°25'106 9.9
2015-Mar-31 01:31N 29°12' W 012°34'4310.1
2015-Mar-30 21:19N 28°37' W 013°01'11510.2
2015-Mar-30 10:05N 27°07' W 014°22'4410.9
2015-Mar-30 06:04N 26°34' W 014°54'5 9.7
2015-Mar-30 05:33N 26°30' W 014°58'225 9.8
2015-Mar-29 06:29N 23°19' W 017°09'  

Dump ship's entire track history